sensor_id;sensor_type;location;lat;lon;timestamp;P1;durP1;ratioP1;P2;durP2;ratioP2
7683;SDS011;3884;48.616;12.872;2023-02-11T00:00:49;70.40;;;48.15;;
7683;SDS011;3884;48.616;12.872;2023-02-11T00:03:16;68.10;;;46.30;;
7683;SDS011;3884;48.616;12.872;2023-02-11T00:05:43;72.43;;;48.37;;
7683;SDS011;3884;48.616;12.872;2023-02-11T00:08:10;77.05;;;49.97;;
7683;SDS011;3884;48.616;12.872;2023-02-11T00:10:41;74.63;;;49.42;;
7683;SDS011;3884;48.616;12.872;2023-02-11T00:13:10;72.78;;;49.78;;
7683;SDS011;3884;48.616;12.872;2023-02-11T00:15:38;74.88;;;48.92;;
7683;SDS011;3884;48.616;12.872;2023-02-11T00:18:05;65.67;;;46.67;;
7683;SDS011;3884;48.616;12.872;2023-02-11T00:20:32;72.15;;;48.05;;
7683;SDS011;3884;48.616;12.872;2023-02-11T00:22:59;70.60;;;45.83;;
7683;SDS011;3884;48.616;12.872;2023-02-11T00:25:27;68.18;;;47.05;;
7683;SDS011;3884;48.616;12.872;2023-02-11T00:27:53;71.30;;;47.70;;
7683;SDS011;3884;48.616;12.872;2023-02-11T00:30:20;72.22;;;48.85;;
7683;SDS011;3884;48.616;12.872;2023-02-11T00:32:49;64.65;;;45.90;;
7683;SDS011;3884;48.616;12.872;2023-02-11T00:35:16;65.32;;;46.55;;
7683;SDS011;3884;48.616;12.872;2023-02-11T00:37:43;72.22;;;47.50;;
7683;SDS011;3884;48.616;12.872;2023-02-11T00:40:10;78.50;;;51.10;;
7683;SDS011;3884;48.616;12.872;2023-02-11T00:42:40;78.83;;;49.27;;
7683;SDS011;3884;48.616;12.872;2023-02-11T00:45:07;75.10;;;50.75;;
7683;SDS011;3884;48.616;12.872;2023-02-11T00:47:35;73.22;;;48.00;;
7683;SDS011;3884;48.616;12.872;2023-02-11T00:50:03;73.50;;;48.83;;
7683;SDS011;3884;48.616;12.872;2023-02-11T00:52:32;69.13;;;47.97;;
7683;SDS011;3884;48.616;12.872;2023-02-11T00:54:59;70.97;;;48.25;;
7683;SDS011;3884;48.616;12.872;2023-02-11T00:57:26;68.93;;;45.65;;
7683;SDS011;3884;48.616;12.872;2023-02-11T00:59:53;68.88;;;46.35;;
7683;SDS011;3884;48.616;12.872;2023-02-11T01:02:20;69.05;;;45.63;;
7683;SDS011;3884;48.616;12.872;2023-02-11T01:04:47;69.07;;;45.27;;
7683;SDS011;3884;48.616;12.872;2023-02-11T01:07:16;63.33;;;44.57;;
7683;SDS011;3884;48.616;12.872;2023-02-11T01:09:43;67.97;;;45.47;;
7683;SDS011;3884;48.616;12.872;2023-02-11T01:12:10;69.93;;;46.17;;
7683;SDS011;3884;48.616;12.872;2023-02-11T01:14:39;67.43;;;47.70;;
7683;SDS011;3884;48.616;12.872;2023-02-11T01:17:06;67.60;;;45.97;;
7683;SDS011;3884;48.616;12.872;2023-02-11T01:19:33;98.00;;;60.13;;
7683;SDS011;3884;48.616;12.872;2023-02-11T01:22:01;68.80;;;47.55;;
7683;SDS011;3884;48.616;12.872;2023-02-11T01:24:30;70.53;;;47.20;;
7683;SDS011;3884;48.616;12.872;2023-02-11T01:26:58;71.45;;;48.30;;
7683;SDS011;3884;48.616;12.872;2023-02-11T01:29:25;74.40;;;48.45;;
7683;SDS011;3884;48.616;12.872;2023-02-11T01:31:53;67.57;;;44.72;;
7683;SDS011;3884;48.616;12.872;2023-02-11T01:34:20;69.97;;;46.72;;
7683;SDS011;3884;48.616;12.872;2023-02-11T01:36:48;67.82;;;47.40;;
7683;SDS011;3884;48.616;12.872;2023-02-11T01:39:15;69.13;;;47.85;;
7683;SDS011;3884;48.616;12.872;2023-02-11T01:41:45;73.57;;;49.43;;
7683;SDS011;3884;48.616;12.872;2023-02-11T01:44:23;70.53;;;48.58;;
7683;SDS011;3884;48.616;12.872;2023-02-11T01:46:51;75.57;;;49.55;;
7683;SDS011;3884;48.616;12.872;2023-02-11T01:49:20;88.97;;;54.45;;
7683;SDS011;3884;48.616;12.872;2023-02-11T01:51:50;74.00;;;49.58;;
7683;SDS011;3884;48.616;12.872;2023-02-11T01:54:23;77.85;;;52.35;;
7683;SDS011;3884;48.616;12.872;2023-02-11T01:57:12;79.20;;;51.60;;
7683;SDS011;3884;48.616;12.872;2023-02-11T02:00:01;79.55;;;53.22;;
7683;SDS011;3884;48.616;12.872;2023-02-11T02:02:43;78.07;;;51.88;;
7683;SDS011;3884;48.616;12.872;2023-02-11T02:05:19;78.45;;;52.00;;
7683;SDS011;3884;48.616;12.872;2023-02-11T02:07:53;99.05;;;62.25;;
7683;SDS011;3884;48.616;12.872;2023-02-11T02:10:26;84.70;;;55.83;;
7683;SDS011;3884;48.616;12.872;2023-02-11T02:12:55;80.35;;;52.83;;
7683;SDS011;3884;48.616;12.872;2023-02-11T02:15:24;78.50;;;52.78;;
7683;SDS011;3884;48.616;12.872;2023-02-11T02:17:56;74.22;;;50.42;;
7683;SDS011;3884;48.616;12.872;2023-02-11T02:20:40;77.53;;;52.38;;
7683;SDS011;3884;48.616;12.872;2023-02-11T02:23:48;81.50;;;53.40;;
7683;SDS011;3884;48.616;12.872;2023-02-11T02:29:52;80.35;;;53.00;;
7683;SDS011;3884;48.616;12.872;2023-02-11T02:32:34;95.10;;;57.45;;
7683;SDS011;3884;48.616;12.872;2023-02-11T02:35:28;103.75;;;61.53;;
7683;SDS011;3884;48.616;12.872;2023-02-11T02:38:00;112.85;;;64.85;;
7683;SDS011;3884;48.616;12.872;2023-02-11T02:40:33;97.00;;;58.85;;
7683;SDS011;3884;48.616;12.872;2023-02-11T02:43:06;77.50;;;50.10;;
7683;SDS011;3884;48.616;12.872;2023-02-11T02:45:36;75.18;;;48.38;;
7683;SDS011;3884;48.616;12.872;2023-02-11T02:48:04;73.00;;;48.55;;
7683;SDS011;3884;48.616;12.872;2023-02-11T02:50:32;80.95;;;49.42;;
7683;SDS011;3884;48.616;12.872;2023-02-11T02:53:08;80.70;;;49.20;;
7683;SDS011;3884;48.616;12.872;2023-02-11T02:55:54;77.03;;;50.67;;
7683;SDS011;3884;48.616;12.872;2023-02-11T03:01:21;78.60;;;48.63;;
7683;SDS011;3884;48.616;12.872;2023-02-11T03:03:58;87.50;;;54.03;;
7683;SDS011;3884;48.616;12.872;2023-02-11T03:06:33;81.07;;;53.07;;
7683;SDS011;3884;48.616;12.872;2023-02-11T03:09:14;78.40;;;50.33;;
7683;SDS011;3884;48.616;12.872;2023-02-11T03:11:46;78.53;;;50.28;;
7683;SDS011;3884;48.616;12.872;2023-02-11T03:14:14;76.03;;;49.20;;
7683;SDS011;3884;48.616;12.872;2023-02-11T03:16:43;80.45;;;50.90;;
7683;SDS011;3884;48.616;12.872;2023-02-11T03:19:16;76.15;;;48.78;;
7683;SDS011;3884;48.616;12.872;2023-02-11T03:21:46;75.80;;;49.40;;
7683;SDS011;3884;48.616;12.872;2023-02-11T03:24:17;71.28;;;46.85;;
7683;SDS011;3884;48.616;12.872;2023-02-11T03:26:50;71.27;;;48.60;;
7683;SDS011;3884;48.616;12.872;2023-02-11T03:29:21;73.40;;;45.95;;
7683;SDS011;3884;48.616;12.872;2023-02-11T03:31:58;69.82;;;46.95;;
7683;SDS011;3884;48.616;12.872;2023-02-11T03:34:31;69.50;;;46.85;;
7683;SDS011;3884;48.616;12.872;2023-02-11T03:37:04;70.45;;;48.00;;
7683;SDS011;3884;48.616;12.872;2023-02-11T03:39:35;72.40;;;48.90;;
7683;SDS011;3884;48.616;12.872;2023-02-11T03:42:06;73.55;;;48.10;;
7683;SDS011;3884;48.616;12.872;2023-02-11T03:44:37;71.47;;;48.63;;
7683;SDS011;3884;48.616;12.872;2023-02-11T03:47:07;73.30;;;50.20;;
7683;SDS011;3884;48.616;12.872;2023-02-11T03:49:38;92.30;;;56.38;;
7683;SDS011;3884;48.616;12.872;2023-02-11T03:52:07;98.27;;;59.77;;
7683;SDS011;3884;48.616;12.872;2023-02-11T03:54:36;97.22;;;60.17;;
7683;SDS011;3884;48.616;12.872;2023-02-11T03:57:06;94.10;;;57.20;;
7683;SDS011;3884;48.616;12.872;2023-02-11T03:59:48;83.75;;;52.78;;
7683;SDS011;3884;48.616;12.872;2023-02-11T04:02:18;79.70;;;52.63;;
7683;SDS011;3884;48.616;12.872;2023-02-11T04:04:47;74.57;;;49.80;;
7683;SDS011;3884;48.616;12.872;2023-02-11T04:07:14;73.05;;;50.22;;
7683;SDS011;3884;48.616;12.872;2023-02-11T04:09:41;72.25;;;49.58;;
7683;SDS011;3884;48.616;12.872;2023-02-11T04:12:09;71.35;;;47.28;;
7683;SDS011;3884;48.616;12.872;2023-02-11T04:14:36;74.03;;;49.75;;
7683;SDS011;3884;48.616;12.872;2023-02-11T04:17:03;71.22;;;50.22;;
7683;SDS011;3884;48.616;12.872;2023-02-11T04:19:30;73.88;;;47.75;;
7683;SDS011;3884;48.616;12.872;2023-02-11T04:21:59;69.63;;;48.55;;
7683;SDS011;3884;48.616;12.872;2023-02-11T04:24:26;73.60;;;48.97;;
7683;SDS011;3884;48.616;12.872;2023-02-11T04:26:53;77.37;;;48.77;;
7683;SDS011;3884;48.616;12.872;2023-02-11T04:29:20;70.00;;;48.47;;
7683;SDS011;3884;48.616;12.872;2023-02-11T04:31:47;72.73;;;49.87;;
7683;SDS011;3884;48.616;12.872;2023-02-11T04:34:15;73.57;;;50.00;;
7683;SDS011;3884;48.616;12.872;2023-02-11T04:36:43;74.82;;;47.90;;
7683;SDS011;3884;48.616;12.872;2023-02-11T04:39:11;72.10;;;47.40;;
7683;SDS011;3884;48.616;12.872;2023-02-11T04:41:38;75.78;;;48.70;;
7683;SDS011;3884;48.616;12.872;2023-02-11T04:44:05;71.93;;;46.53;;
7683;SDS011;3884;48.616;12.872;2023-02-11T04:46:34;76.73;;;49.67;;
7683;SDS011;3884;48.616;12.872;2023-02-11T04:49:01;78.47;;;50.17;;
7683;SDS011;3884;48.616;12.872;2023-02-11T04:51:28;77.55;;;51.35;;
7683;SDS011;3884;48.616;12.872;2023-02-11T04:53:55;75.32;;;49.67;;
7683;SDS011;3884;48.616;12.872;2023-02-11T04:56:23;76.45;;;49.60;;
7683;SDS011;3884;48.616;12.872;2023-02-11T04:58:50;79.00;;;50.05;;
7683;SDS011;3884;48.616;12.872;2023-02-11T05:01:17;78.43;;;50.45;;
7683;SDS011;3884;48.616;12.872;2023-02-11T05:03:44;84.78;;;53.83;;
7683;SDS011;3884;48.616;12.872;2023-02-11T05:06:11;87.40;;;54.95;;
7683;SDS011;3884;48.616;12.872;2023-02-11T05:08:38;80.07;;;53.38;;
7683;SDS011;3884;48.616;12.872;2023-02-11T05:11:06;85.82;;;55.40;;
7683;SDS011;3884;48.616;12.872;2023-02-11T05:13:35;78.82;;;51.25;;
7683;SDS011;3884;48.616;12.872;2023-02-11T05:16:02;82.13;;;54.22;;
7683;SDS011;3884;48.616;12.872;2023-02-11T05:18:29;78.55;;;51.72;;
7683;SDS011;3884;48.616;12.872;2023-02-11T05:20:56;81.75;;;53.65;;
7683;SDS011;3884;48.616;12.872;2023-02-11T05:23:23;83.15;;;51.97;;
7683;SDS011;3884;48.616;12.872;2023-02-11T05:25:50;83.97;;;52.53;;
7683;SDS011;3884;48.616;12.872;2023-02-11T05:28:17;83.38;;;53.47;;
7683;SDS011;3884;48.616;12.872;2023-02-11T05:30:46;85.80;;;53.80;;
7683;SDS011;3884;48.616;12.872;2023-02-11T05:33:13;83.32;;;53.78;;
7683;SDS011;3884;48.616;12.872;2023-02-11T05:35:40;88.43;;;55.00;;
7683;SDS011;3884;48.616;12.872;2023-02-11T05:38:07;82.90;;;54.05;;
7683;SDS011;3884;48.616;12.872;2023-02-11T05:40:34;81.75;;;54.15;;
7683;SDS011;3884;48.616;12.872;2023-02-11T05:43:01;83.90;;;53.63;;
7683;SDS011;3884;48.616;12.872;2023-02-11T05:45:28;79.97;;;53.50;;
7683;SDS011;3884;48.616;12.872;2023-02-11T05:47:57;80.53;;;53.58;;
7683;SDS011;3884;48.616;12.872;2023-02-11T05:50:24;80.00;;;53.67;;
7683;SDS011;3884;48.616;12.872;2023-02-11T05:52:51;86.27;;;52.80;;
7683;SDS011;3884;48.616;12.872;2023-02-11T05:55:18;83.32;;;52.88;;
7683;SDS011;3884;48.616;12.872;2023-02-11T05:57:45;73.83;;;50.63;;
7683;SDS011;3884;48.616;12.872;2023-02-11T06:00:13;82.43;;;53.23;;
7683;SDS011;3884;48.616;12.872;2023-02-11T06:02:40;85.60;;;54.63;;
7683;SDS011;3884;48.616;12.872;2023-02-11T06:05:09;108.43;;;71.23;;
7683;SDS011;3884;48.616;12.872;2023-02-11T06:07:36;156.80;;;100.30;;
7683;SDS011;3884;48.616;12.872;2023-02-11T06:10:03;97.43;;;64.35;;
7683;SDS011;3884;48.616;12.872;2023-02-11T06:12:31;94.00;;;59.20;;
7683;SDS011;3884;48.616;12.872;2023-02-11T06:14:58;93.20;;;61.58;;
7683;SDS011;3884;48.616;12.872;2023-02-11T06:17:25;119.00;;;69.33;;
7683;SDS011;3884;48.616;12.872;2023-02-11T06:19:55;119.68;;;70.43;;
7683;SDS011;3884;48.616;12.872;2023-02-11T06:22:24;121.45;;;73.78;;
7683;SDS011;3884;48.616;12.872;2023-02-11T06:24:51;112.82;;;69.60;;
7683;SDS011;3884;48.616;12.872;2023-02-11T06:27:18;116.10;;;70.50;;
7683;SDS011;3884;48.616;12.872;2023-02-11T06:29:45;106.90;;;65.17;;
7683;SDS011;3884;48.616;12.872;2023-02-11T06:32:13;98.10;;;62.13;;
7683;SDS011;3884;48.616;12.872;2023-02-11T06:34:40;95.13;;;60.33;;
7683;SDS011;3884;48.616;12.872;2023-02-11T06:37:07;93.90;;;58.47;;
7683;SDS011;3884;48.616;12.872;2023-02-11T06:39:35;100.15;;;58.42;;
7683;SDS011;3884;48.616;12.872;2023-02-11T06:42:02;106.97;;;65.53;;
7683;SDS011;3884;48.616;12.872;2023-02-11T06:44:29;107.73;;;67.70;;
7683;SDS011;3884;48.616;12.872;2023-02-11T06:46:57;92.50;;;60.07;;
7683;SDS011;3884;48.616;12.872;2023-02-11T06:49:24;98.83;;;62.17;;
7683;SDS011;3884;48.616;12.872;2023-02-11T06:51:51;96.80;;;59.60;;
7683;SDS011;3884;48.616;12.872;2023-02-11T06:54:18;96.22;;;60.20;;
7683;SDS011;3884;48.616;12.872;2023-02-11T06:56:46;97.88;;;59.50;;
7683;SDS011;3884;48.616;12.872;2023-02-11T06:59:14;97.95;;;61.40;;
7683;SDS011;3884;48.616;12.872;2023-02-11T07:01:41;97.78;;;64.10;;
7683;SDS011;3884;48.616;12.872;2023-02-11T07:04:08;104.20;;;70.23;;
7683;SDS011;3884;48.616;12.872;2023-02-11T07:06:35;147.00;;;99.50;;
7683;SDS011;3884;48.616;12.872;2023-02-11T07:09:03;132.27;;;87.47;;
7683;SDS011;3884;48.616;12.872;2023-02-11T07:11:30;106.90;;;70.30;;
7683;SDS011;3884;48.616;12.872;2023-02-11T07:14:00;119.90;;;75.50;;
7683;SDS011;3884;48.616;12.872;2023-02-11T07:16:29;97.10;;;63.33;;
7683;SDS011;3884;48.616;12.872;2023-02-11T07:18:56;100.33;;;63.67;;
7683;SDS011;3884;48.616;12.872;2023-02-11T07:21:23;97.97;;;62.83;;
7683;SDS011;3884;48.616;12.872;2023-02-11T07:23:50;103.47;;;66.27;;
7683;SDS011;3884;48.616;12.872;2023-02-11T07:26:19;110.30;;;68.83;;
7683;SDS011;3884;48.616;12.872;2023-02-11T07:28:48;100.93;;;62.50;;
7683;SDS011;3884;48.616;12.872;2023-02-11T07:31:17;100.53;;;63.33;;
7683;SDS011;3884;48.616;12.872;2023-02-11T07:33:47;97.00;;;62.63;;
7683;SDS011;3884;48.616;12.872;2023-02-11T07:36:14;102.13;;;62.33;;
7683;SDS011;3884;48.616;12.872;2023-02-11T07:38:42;94.80;;;58.43;;
7683;SDS011;3884;48.616;12.872;2023-02-11T07:41:09;93.43;;;59.17;;
7683;SDS011;3884;48.616;12.872;2023-02-11T07:43:38;90.43;;;56.23;;
7683;SDS011;3884;48.616;12.872;2023-02-11T07:46:06;86.53;;;54.57;;
7683;SDS011;3884;48.616;12.872;2023-02-11T07:48:36;83.83;;;53.77;;
7683;SDS011;3884;48.616;12.872;2023-02-11T07:51:04;86.33;;;54.37;;
7683;SDS011;3884;48.616;12.872;2023-02-11T07:53:32;84.10;;;53.93;;
7683;SDS011;3884;48.616;12.872;2023-02-11T07:55:59;83.43;;;54.23;;
7683;SDS011;3884;48.616;12.872;2023-02-11T07:58:27;80.90;;;53.33;;
7683;SDS011;3884;48.616;12.872;2023-02-11T08:00:54;84.50;;;54.90;;
7683;SDS011;3884;48.616;12.872;2023-02-11T08:03:25;94.13;;;57.40;;
7683;SDS011;3884;48.616;12.872;2023-02-11T08:05:54;90.23;;;57.40;;
7683;SDS011;3884;48.616;12.872;2023-02-11T08:08:21;89.63;;;57.37;;
7683;SDS011;3884;48.616;12.872;2023-02-11T08:10:48;83.33;;;53.00;;
7683;SDS011;3884;48.616;12.872;2023-02-11T08:13:15;83.70;;;53.33;;
7683;SDS011;3884;48.616;12.872;2023-02-11T08:15:42;77.53;;;51.60;;
7683;SDS011;3884;48.616;12.872;2023-02-11T08:18:09;77.50;;;51.50;;
7683;SDS011;3884;48.616;12.872;2023-02-11T08:20:36;80.83;;;53.47;;
7683;SDS011;3884;48.616;12.872;2023-02-11T08:23:05;80.00;;;51.57;;
7683;SDS011;3884;48.616;12.872;2023-02-11T08:25:32;79.80;;;52.67;;
7683;SDS011;3884;48.616;12.872;2023-02-11T08:27:59;82.80;;;53.03;;
7683;SDS011;3884;48.616;12.872;2023-02-11T08:30:26;82.63;;;52.27;;
7683;SDS011;3884;48.616;12.872;2023-02-11T08:32:53;81.33;;;52.03;;
7683;SDS011;3884;48.616;12.872;2023-02-11T08:35:21;80.40;;;50.80;;
7683;SDS011;3884;48.616;12.872;2023-02-11T08:37:50;83.73;;;53.80;;
7683;SDS011;3884;48.616;12.872;2023-02-11T08:40:19;82.63;;;54.20;;
7683;SDS011;3884;48.616;12.872;2023-02-11T08:42:46;86.43;;;54.10;;
7683;SDS011;3884;48.616;12.872;2023-02-11T08:45:13;82.97;;;53.43;;
7683;SDS011;3884;48.616;12.872;2023-02-11T08:47:40;88.93;;;57.73;;
7683;SDS011;3884;48.616;12.872;2023-02-11T08:50:07;83.47;;;54.17;;
7683;SDS011;3884;48.616;12.872;2023-02-11T08:52:35;83.83;;;54.67;;
7683;SDS011;3884;48.616;12.872;2023-02-11T08:55:02;91.60;;;58.23;;
7683;SDS011;3884;48.616;12.872;2023-02-11T08:57:31;89.30;;;57.70;;
7683;SDS011;3884;48.616;12.872;2023-02-11T08:59:58;88.37;;;56.33;;
7683;SDS011;3884;48.616;12.872;2023-02-11T09:02:25;86.27;;;54.90;;
7683;SDS011;3884;48.616;12.872;2023-02-11T09:04:52;81.93;;;54.10;;
7683;SDS011;3884;48.616;12.872;2023-02-11T09:07:19;87.63;;;56.13;;
7683;SDS011;3884;48.616;12.872;2023-02-11T09:09:46;82.63;;;55.23;;
7683;SDS011;3884;48.616;12.872;2023-02-11T09:12:13;83.90;;;53.93;;
7683;SDS011;3884;48.616;12.872;2023-02-11T09:14:41;85.10;;;55.33;;
7683;SDS011;3884;48.616;12.872;2023-02-11T09:17:08;82.43;;;52.00;;
7683;SDS011;3884;48.616;12.872;2023-02-11T09:19:36;76.20;;;51.77;;
7683;SDS011;3884;48.616;12.872;2023-02-11T09:22:03;79.13;;;50.47;;
7683;SDS011;3884;48.616;12.872;2023-02-11T09:24:30;103.13;;;71.33;;
7683;SDS011;3884;48.616;12.872;2023-02-11T09:26:57;97.80;;;67.70;;
7683;SDS011;3884;48.616;12.872;2023-02-11T09:29:23;83.53;;;56.37;;
7683;SDS011;3884;48.616;12.872;2023-02-11T09:31:52;86.63;;;61.60;;
7683;SDS011;3884;48.616;12.872;2023-02-11T09:34:19;76.93;;;53.20;;
7683;SDS011;3884;48.616;12.872;2023-02-11T09:36:46;64.53;;;45.27;;
7683;SDS011;3884;48.616;12.872;2023-02-11T09:39:14;64.23;;;44.83;;
7683;SDS011;3884;48.616;12.872;2023-02-11T09:41:53;70.80;;;47.33;;
7683;SDS011;3884;48.616;12.872;2023-02-11T09:44:40;67.73;;;46.73;;
7683;SDS011;3884;48.616;12.872;2023-02-11T09:47:17;82.03;;;59.03;;
7683;SDS011;3884;48.616;12.872;2023-02-11T09:49:51;76.73;;;57.73;;
7683;SDS011;3884;48.616;12.872;2023-02-11T09:52:24;74.80;;;54.80;;
7683;SDS011;3884;48.616;12.872;2023-02-11T09:54:59;79.63;;;54.97;;
7683;SDS011;3884;48.616;12.872;2023-02-11T09:57:30;72.87;;;51.90;;
7683;SDS011;3884;48.616;12.872;2023-02-11T09:59:59;66.17;;;44.77;;
7683;SDS011;3884;48.616;12.872;2023-02-11T10:02:41;54.80;;;38.43;;
7683;SDS011;3884;48.616;12.872;2023-02-11T10:05:28;57.93;;;42.43;;
7683;SDS011;3884;48.616;12.872;2023-02-11T10:08:07;57.73;;;41.83;;
7683;SDS011;3884;48.616;12.872;2023-02-11T10:10:43;57.23;;;41.10;;
7683;SDS011;3884;48.616;12.872;2023-02-11T10:13:20;58.93;;;41.50;;
7683;SDS011;3884;48.616;12.872;2023-02-11T10:15:58;54.40;;;37.50;;
7683;SDS011;3884;48.616;12.872;2023-02-11T10:18:49;53.13;;;37.73;;
7683;SDS011;3884;48.616;12.872;2023-02-11T10:21:30;56.23;;;37.73;;
7683;SDS011;3884;48.616;12.872;2023-02-11T10:24:08;52.43;;;36.53;;
7683;SDS011;3884;48.616;12.872;2023-02-11T10:26:37;49.93;;;34.40;;
7683;SDS011;3884;48.616;12.872;2023-02-11T10:31:56;48.30;;;34.73;;
7683;SDS011;3884;48.616;12.872;2023-02-11T10:34:27;49.93;;;35.43;;
7683;SDS011;3884;48.616;12.872;2023-02-11T10:36:55;48.57;;;35.03;;
7683;SDS011;3884;48.616;12.872;2023-02-11T10:39:22;47.23;;;35.33;;
7683;SDS011;3884;48.616;12.872;2023-02-11T10:41:53;47.53;;;33.90;;
7683;SDS011;3884;48.616;12.872;2023-02-11T10:44:23;55.03;;;37.67;;
7683;SDS011;3884;48.616;12.872;2023-02-11T10:46:52;45.53;;;32.73;;
7683;SDS011;3884;48.616;12.872;2023-02-11T10:49:36;45.13;;;32.90;;
7683;SDS011;3884;48.616;12.872;2023-02-11T10:52:11;43.20;;;31.70;;
7683;SDS011;3884;48.616;12.872;2023-02-11T10:54:55;45.50;;;32.73;;
7683;SDS011;3884;48.616;12.872;2023-02-11T10:57:29;44.23;;;31.37;;
7683;SDS011;3884;48.616;12.872;2023-02-11T11:00:03;45.23;;;32.27;;
7683;SDS011;3884;48.616;12.872;2023-02-11T11:02:35;42.70;;;30.83;;
7683;SDS011;3884;48.616;12.872;2023-02-11T11:05:15;44.53;;;32.43;;
7683;SDS011;3884;48.616;12.872;2023-02-11T11:07:50;51.47;;;35.20;;
7683;SDS011;3884;48.616;12.872;2023-02-11T11:13:25;43.03;;;31.87;;
7683;SDS011;3884;48.616;12.872;2023-02-11T11:16:08;44.17;;;31.90;;
7683;SDS011;3884;48.616;12.872;2023-02-11T11:18:47;40.77;;;30.90;;
7683;SDS011;3884;48.616;12.872;2023-02-11T11:21:17;43.93;;;31.80;;
7683;SDS011;3884;48.616;12.872;2023-02-11T11:23:47;47.90;;;32.93;;
7683;SDS011;3884;48.616;12.872;2023-02-11T11:26:17;47.53;;;31.67;;
7683;SDS011;3884;48.616;12.872;2023-02-11T11:28:51;45.83;;;32.70;;
7683;SDS011;3884;48.616;12.872;2023-02-11T11:31:23;43.83;;;31.83;;
7683;SDS011;3884;48.616;12.872;2023-02-11T11:33:54;45.87;;;32.60;;
7683;SDS011;3884;48.616;12.872;2023-02-11T11:36:31;44.63;;;32.70;;
7683;SDS011;3884;48.616;12.872;2023-02-11T11:39:01;43.60;;;32.33;;
7683;SDS011;3884;48.616;12.872;2023-02-11T11:41:47;46.90;;;32.80;;
7683;SDS011;3884;48.616;12.872;2023-02-11T11:44:18;43.57;;;32.03;;
7683;SDS011;3884;48.616;12.872;2023-02-11T11:46:51;48.83;;;33.93;;
7683;SDS011;3884;48.616;12.872;2023-02-11T11:49:36;52.97;;;38.53;;
7683;SDS011;3884;48.616;12.872;2023-02-11T11:52:13;78.60;;;52.70;;
7683;SDS011;3884;48.616;12.872;2023-02-11T11:54:48;45.77;;;33.00;;
7683;SDS011;3884;48.616;12.872;2023-02-11T11:57:22;45.20;;;34.23;;
7683;SDS011;3884;48.616;12.872;2023-02-11T11:59:52;43.67;;;33.07;;
7683;SDS011;3884;48.616;12.872;2023-02-11T12:02:31;43.57;;;31.77;;
7683;SDS011;3884;48.616;12.872;2023-02-11T12:05:21;47.63;;;35.13;;
7683;SDS011;3884;48.616;12.872;2023-02-11T12:07:57;45.43;;;32.63;;
7683;SDS011;3884;48.616;12.872;2023-02-11T12:10:36;44.53;;;33.07;;
7683;SDS011;3884;48.616;12.872;2023-02-11T12:13:19;45.27;;;32.03;;
7683;SDS011;3884;48.616;12.872;2023-02-11T12:15:55;44.97;;;32.60;;
7683;SDS011;3884;48.616;12.872;2023-02-11T12:18:34;47.37;;;33.17;;
7683;SDS011;3884;48.616;12.872;2023-02-11T12:21:22;45.77;;;32.17;;
7683;SDS011;3884;48.616;12.872;2023-02-11T12:24:05;43.40;;;32.03;;
7683;SDS011;3884;48.616;12.872;2023-02-11T12:26:43;43.13;;;31.20;;
7683;SDS011;3884;48.616;12.872;2023-02-11T12:29:17;49.87;;;36.37;;
7683;SDS011;3884;48.616;12.872;2023-02-11T12:31:59;44.60;;;32.07;;
7683;SDS011;3884;48.616;12.872;2023-02-11T12:34:51;45.77;;;33.83;;
7683;SDS011;3884;48.616;12.872;2023-02-11T12:37:44;45.37;;;33.50;;
7683;SDS011;3884;48.616;12.872;2023-02-11T12:40:32;43.73;;;33.33;;
7683;SDS011;3884;48.616;12.872;2023-02-11T12:43:08;44.63;;;32.40;;
7683;SDS011;3884;48.616;12.872;2023-02-11T12:49:02;53.67;;;39.60;;
7683;SDS011;3884;48.616;12.872;2023-02-11T12:52:00;41.40;;;31.07;;
7683;SDS011;3884;48.616;12.872;2023-02-11T12:54:38;43.00;;;29.87;;
7683;SDS011;3884;48.616;12.872;2023-02-11T12:57:12;43.37;;;30.63;;
7683;SDS011;3884;48.616;12.872;2023-02-11T12:59:45;39.27;;;28.17;;
7683;SDS011;3884;48.616;12.872;2023-02-11T13:02:21;39.53;;;28.40;;
7683;SDS011;3884;48.616;12.872;2023-02-11T13:04:55;37.30;;;26.83;;
7683;SDS011;3884;48.616;12.872;2023-02-11T13:07:28;39.63;;;28.60;;
7683;SDS011;3884;48.616;12.872;2023-02-11T13:10:00;37.17;;;26.63;;
7683;SDS011;3884;48.616;12.872;2023-02-11T13:12:35;34.57;;;26.70;;
7683;SDS011;3884;48.616;12.872;2023-02-11T13:15:21;36.53;;;27.70;;
7683;SDS011;3884;48.616;12.872;2023-02-11T13:17:53;37.63;;;26.10;;
7683;SDS011;3884;48.616;12.872;2023-02-11T13:20:30;35.20;;;27.23;;
7683;SDS011;3884;48.616;12.872;2023-02-11T13:23:05;39.30;;;26.87;;
7683;SDS011;3884;48.616;12.872;2023-02-11T13:25:40;38.23;;;26.93;;
7683;SDS011;3884;48.616;12.872;2023-02-11T13:28:22;37.47;;;27.77;;
7683;SDS011;3884;48.616;12.872;2023-02-11T13:30:58;40.43;;;28.20;;
7683;SDS011;3884;48.616;12.872;2023-02-11T13:33:32;39.13;;;28.60;;
7683;SDS011;3884;48.616;12.872;2023-02-11T13:36:20;42.50;;;29.73;;
7683;SDS011;3884;48.616;12.872;2023-02-11T13:38:59;36.10;;;27.53;;
7683;SDS011;3884;48.616;12.872;2023-02-11T13:41:32;39.37;;;28.53;;
7683;SDS011;3884;48.616;12.872;2023-02-11T13:44:03;41.43;;;29.77;;
7683;SDS011;3884;48.616;12.872;2023-02-11T13:46:48;39.80;;;29.30;;
7683;SDS011;3884;48.616;12.872;2023-02-11T13:49:25;42.53;;;30.73;;
7683;SDS011;3884;48.616;12.872;2023-02-11T13:51:55;40.73;;;31.10;;
7683;SDS011;3884;48.616;12.872;2023-02-11T13:54:25;46.50;;;33.30;;
7683;SDS011;3884;48.616;12.872;2023-02-11T14:00:02;48.43;;;33.10;;
7683;SDS011;3884;48.616;12.872;2023-02-11T14:03:16;45.10;;;31.57;;
7683;SDS011;3884;48.616;12.872;2023-02-11T14:06:13;41.93;;;30.43;;
7683;SDS011;3884;48.616;12.872;2023-02-11T14:09:06;41.57;;;30.10;;
7683;SDS011;3884;48.616;12.872;2023-02-11T14:12:15;61.23;;;41.67;;
7683;SDS011;3884;48.616;12.872;2023-02-11T14:14:57;64.37;;;43.50;;
7683;SDS011;3884;48.616;12.872;2023-02-11T14:17:28;48.03;;;34.00;;
7683;SDS011;3884;48.616;12.872;2023-02-11T14:19:57;41.20;;;30.03;;
7683;SDS011;3884;48.616;12.872;2023-02-11T14:22:26;57.57;;;42.30;;
7683;SDS011;3884;48.616;12.872;2023-02-11T14:24:56;53.97;;;37.60;;
7683;SDS011;3884;48.616;12.872;2023-02-11T14:27:35;48.80;;;37.00;;
7683;SDS011;3884;48.616;12.872;2023-02-11T14:30:23;45.37;;;33.03;;
7683;SDS011;3884;48.616;12.872;2023-02-11T14:33:11;44.57;;;32.50;;
7683;SDS011;3884;48.616;12.872;2023-02-11T14:36:04;41.33;;;30.20;;
7683;SDS011;3884;48.616;12.872;2023-02-11T14:38:42;41.57;;;31.00;;
7683;SDS011;3884;48.616;12.872;2023-02-11T14:41:19;43.37;;;30.73;;
7683;SDS011;3884;48.616;12.872;2023-02-11T14:43:48;40.97;;;31.77;;
7683;SDS011;3884;48.616;12.872;2023-02-11T14:46:19;44.77;;;32.77;;
7683;SDS011;3884;48.616;12.872;2023-02-11T14:48:49;41.87;;;32.70;;
7683;SDS011;3884;48.616;12.872;2023-02-11T14:51:20;45.53;;;31.97;;
7683;SDS011;3884;48.616;12.872;2023-02-11T14:53:51;45.37;;;34.13;;
7683;SDS011;3884;48.616;12.872;2023-02-11T14:56:22;45.43;;;33.40;;
7683;SDS011;3884;48.616;12.872;2023-02-11T14:58:52;47.33;;;33.90;;
7683;SDS011;3884;48.616;12.872;2023-02-11T15:01:25;48.30;;;34.43;;
7683;SDS011;3884;48.616;12.872;2023-02-11T15:03:57;43.87;;;33.80;;
7683;SDS011;3884;48.616;12.872;2023-02-11T15:06:27;48.23;;;34.63;;
7683;SDS011;3884;48.616;12.872;2023-02-11T15:08:58;45.83;;;34.40;;
7683;SDS011;3884;48.616;12.872;2023-02-11T15:11:26;45.50;;;33.17;;
7683;SDS011;3884;48.616;12.872;2023-02-11T15:13:56;51.77;;;36.43;;
7683;SDS011;3884;48.616;12.872;2023-02-11T15:16:26;49.83;;;36.97;;
7683;SDS011;3884;48.616;12.872;2023-02-11T15:18:55;49.67;;;38.47;;